createdAt,value
2019-05-26T00:01:20.978Z,6.58
2019-05-26T00:03:53.793Z,7.22
2019-05-26T00:06:26.430Z,7.10
2019-05-26T00:08:58.757Z,8.48
2019-05-26T00:11:31.407Z,7.78
2019-05-26T00:14:03.740Z,9.85
2019-05-26T00:16:36.456Z,6.95
2019-05-26T00:19:09.508Z,6.90
2019-05-26T00:24:12.456Z,7.55
2019-05-26T00:26:45.088Z,7.00
2019-05-26T00:29:18.086Z,9.00
2019-05-26T00:31:50.856Z,7.45
2019-05-26T00:36:54.017Z,6.60
2019-05-26T00:39:26.384Z,8.05
2019-05-26T00:41:58.585Z,8.33
2019-05-26T00:44:31.583Z,10.98
2019-05-26T00:47:04.581Z,8.30
2019-05-26T00:49:36.354Z,6.65
2019-05-26T00:52:09.829Z,7.67
2019-05-26T00:54:42.915Z,8.35
2019-05-26T00:57:14.989Z,9.25
2019-05-26T00:59:47.802Z,10.70
2019-05-26T01:02:19.577Z,9.65
2019-05-26T01:04:52.306Z,7.33
2019-05-26T01:07:24.389Z,7.95
2019-05-26T01:09:56.531Z,9.47
2019-05-26T01:12:29.211Z,7.10
2019-05-26T01:15:01.680Z,7.85
2019-05-26T01:17:34.406Z,12.37
2019-05-26T01:20:07.177Z,9.63
2019-05-26T01:22:39.915Z,8.45
2019-05-26T01:25:12.455Z,9.15
2019-05-26T01:27:44.527Z,7.87
2019-05-26T01:30:20.048Z,8.43
2019-05-26T01:32:53.105Z,8.10
2019-05-26T01:35:25.788Z,9.75
2019-05-26T01:37:57.966Z,10.13
2019-05-26T01:40:43.238Z,8.53
2019-05-26T01:43:15.603Z,7.55
2019-05-26T01:45:48.033Z,8.78
2019-05-26T01:48:21.187Z,9.33
2019-05-26T01:50:54.447Z,9.98
2019-05-26T01:53:26.973Z,7.53
2019-05-26T01:55:59.529Z,7.12
2019-05-26T01:58:31.895Z,7.25
2019-05-26T02:01:04.028Z,8.65
2019-05-26T02:03:37.126Z,8.45
2019-05-26T02:06:09.474Z,5.87
2019-05-26T02:08:41.551Z,7.83
2019-05-26T02:11:14.230Z,6.33
2019-05-26T02:13:46.564Z,7.50
2019-05-26T02:16:19.290Z,7.80
2019-05-26T02:18:51.734Z,7.58
2019-05-26T02:21:24.543Z,7.53
2019-05-26T02:23:57.235Z,8.68
2019-05-26T02:26:30.108Z,8.20
2019-05-26T02:29:02.789Z,8.58
2019-05-26T02:31:35.732Z,10.60
2019-05-26T02:34:07.899Z,14.35
2019-05-26T02:36:39.975Z,9.58
2019-05-26T02:39:12.684Z,7.80
2019-05-26T02:41:44.935Z,7.12
2019-05-26T02:44:16.800Z,9.00
2019-05-26T02:46:49.802Z,8.58
2019-05-26T02:49:21.958Z,8.60
2019-05-26T02:51:54.463Z,9.17
2019-05-26T02:54:26.993Z,7.50
2019-05-26T02:56:59.172Z,9.83
2019-05-26T02:59:31.730Z,8.70
2019-05-26T03:02:04.944Z,7.30
2019-05-26T03:04:38.040Z,10.13
2019-05-26T03:07:12.778Z,8.93
2019-05-26T03:09:48.837Z,6.70
2019-05-26T03:12:25.186Z,9.33
2019-05-26T03:15:01.472Z,8.30
2019-05-26T03:17:37.461Z,11.57
2019-05-26T03:20:10.837Z,8.53
2019-05-26T03:25:18.418Z,7.50
2019-05-26T03:27:50.876Z,8.50
2019-05-26T03:30:23.441Z,8.98
2019-05-26T03:32:56.144Z,9.88
2019-05-26T03:35:29.242Z,9.03
2019-05-26T03:38:01.041Z,10.32
2019-05-26T03:40:33.807Z,10.82
2019-05-26T03:43:06.202Z,9.85
2019-05-26T03:46:18.451Z,11.68
2019-05-26T03:48:52.057Z,11.12
2019-05-26T03:51:24.412Z,9.20
2019-05-26T03:53:57.367Z,9.98
2019-05-26T03:56:30.091Z,10.72
2019-05-26T03:59:02.557Z,10.35
2019-05-26T04:01:34.999Z,7.90
2019-05-26T04:04:07.510Z,11.48
2019-05-26T04:06:40.394Z,10.82
2019-05-26T04:09:13.381Z,9.03
2019-05-26T04:11:45.685Z,12.35
2019-05-26T04:14:18.024Z,8.48
2019-05-26T04:16:50.034Z,13.30
2019-05-26T04:19:23.031Z,11.73
2019-05-26T04:21:55.338Z,9.88
2019-05-26T04:24:27.338Z,11.38
2019-05-26T04:26:59.936Z,11.38
2019-05-26T04:29:32.278Z,9.58
2019-05-26T04:32:04.420Z,11.10
2019-05-26T04:34:37.176Z,14.15
2019-05-26T04:37:09.995Z,11.95
2019-05-26T04:39:42.146Z,13.68
2019-05-26T04:42:14.018Z,6.70
2019-05-26T04:44:46.672Z,13.58
2019-05-26T04:47:19.375Z,10.40
2019-05-26T04:49:51.993Z,13.58
2019-05-26T04:52:24.077Z,14.68
2019-05-26T04:54:56.597Z,16.10
2019-05-26T04:57:29.390Z,15.53
2019-05-26T05:00:01.111Z,17.30
2019-05-26T05:02:33.422Z,15.15
2019-05-26T05:05:06.278Z,15.43
2019-05-26T05:07:38.416Z,12.03
2019-05-26T05:10:11.362Z,15.50
2019-05-26T05:12:44.000Z,18.05
2019-05-26T05:15:16.886Z,20.60
2019-05-26T05:17:49.323Z,19.92
2019-05-26T05:20:22.503Z,21.55
2019-05-26T05:25:25.656Z,17.87
2019-05-26T05:27:58.550Z,20.90
2019-05-26T05:30:30.684Z,21.17
2019-05-26T05:33:03.185Z,22.03
2019-05-26T05:35:35.624Z,22.55
2019-05-26T05:38:08.085Z,21.25
2019-05-26T05:40:40.452Z,16.82
2019-05-26T05:43:12.923Z,22.85
2019-05-26T05:45:45.013Z,22.80
2019-05-26T05:48:17.689Z,22.48
2019-05-26T05:50:49.881Z,22.07
2019-05-26T05:53:22.237Z,22.57
2019-05-26T05:55:54.983Z,21.87
2019-05-26T05:58:27.989Z,17.85
2019-05-26T06:01:00.431Z,14.60
2019-05-26T06:03:32.543Z,19.60
2019-05-26T06:06:05.859Z,18.77
2019-05-26T06:11:16.554Z,17.75
2019-05-26T06:13:43.131Z,15.80
2019-05-26T06:16:16.105Z,12.63
2019-05-26T06:18:48.164Z,18.57
2019-05-26T06:21:20.935Z,14.18
2019-05-26T06:23:53.991Z,12.68
2019-05-26T06:28:57.507Z,12.68
2019-05-26T06:31:29.595Z,13.20
2019-05-26T06:34:01.652Z,10.67
2019-05-26T06:36:34.034Z,9.45
2019-05-26T06:39:10.240Z,11.30
2019-05-26T06:41:42.641Z,11.40
2019-05-26T06:44:14.712Z,7.27
2019-05-26T06:46:47.049Z,5.15
2019-05-26T06:49:19.893Z,8.35
2019-05-26T06:51:53.141Z,6.93
2019-05-26T06:54:25.732Z,8.48
2019-05-26T06:56:58.705Z,8.50
2019-05-26T06:59:31.118Z,8.40
2019-05-26T07:02:03.580Z,7.58
2019-05-26T07:04:36.746Z,10.53
2019-05-26T07:07:09.237Z,9.63
2019-05-26T07:09:41.955Z,11.38
2019-05-26T07:12:14.481Z,9.70
2019-05-26T07:17:20.555Z,9.08
2019-05-26T07:19:51.251Z,7.43
2019-05-26T07:22:23.403Z,11.80
2019-05-26T07:24:56.360Z,7.65
2019-05-26T07:27:28.833Z,10.15
2019-05-26T07:30:00.928Z,9.33
2019-05-26T07:32:34.142Z,9.83
2019-05-26T07:35:07.298Z,10.33
2019-05-26T07:37:39.391Z,12.10
2019-05-26T07:40:12.221Z,14.07
2019-05-26T07:42:44.298Z,12.45
2019-05-26T07:45:17.507Z,9.20
2019-05-26T07:47:49.662Z,11.53
2019-05-26T07:50:22.458Z,11.48
2019-05-26T07:52:54.878Z,10.95
2019-05-26T07:57:58.229Z,12.23
2019-05-26T08:00:30.557Z,13.62
2019-05-26T08:05:34.068Z,10.20
2019-05-26T08:08:12.643Z,11.70
2019-05-26T08:10:41.167Z,11.78
2019-05-26T08:13:13.907Z,9.00
2019-05-26T08:15:46.352Z,9.03
2019-05-26T08:18:19.006Z,11.33
2019-05-26T08:20:51.754Z,10.07
2019-05-26T08:23:23.821Z,11.20
2019-05-26T08:25:56.659Z,9.85
2019-05-26T08:28:28.471Z,9.70
2019-05-26T08:31:01.083Z,9.50
2019-05-26T08:36:05.278Z,8.15
2019-05-26T08:38:37.873Z,10.40
2019-05-26T08:41:10.869Z,11.10
2019-05-26T08:43:44.264Z,8.23
2019-05-26T08:46:17.453Z,9.13
2019-05-26T08:48:50.274Z,8.70
2019-05-26T08:51:22.786Z,7.77
2019-05-26T08:56:26.117Z,7.28
2019-05-26T08:58:57.924Z,7.53
2019-05-26T09:01:31.290Z,7.85
2019-05-26T09:04:03.349Z,7.92
2019-05-26T09:06:37.215Z,5.67
2019-05-26T09:11:40.863Z,7.58
2019-05-26T09:14:13.225Z,6.62
2019-05-26T09:16:45.698Z,6.80
2019-05-26T09:19:17.419Z,5.00
2019-05-26T09:21:50.450Z,7.08
2019-05-26T09:24:22.770Z,3.17
2019-05-26T09:26:55.089Z,5.08
2019-05-26T09:29:27.183Z,6.70
2019-05-26T09:34:30.284Z,4.22
2019-05-26T09:37:02.996Z,4.70
2019-05-26T09:39:35.062Z,4.70
2019-05-26T09:44:38.718Z,3.55
2019-05-26T09:47:10.436Z,5.53
2019-05-26T09:49:43.063Z,3.72
2019-05-26T09:52:15.089Z,5.20
2019-05-26T09:57:18.868Z,2.92
2019-05-26T09:59:51.211Z,4.35
2019-05-26T10:02:23.329Z,4.58
2019-05-26T10:04:55.911Z,4.45
2019-05-26T10:07:27.630Z,3.05
2019-05-26T10:09:59.946Z,2.72
2019-05-26T10:12:33.006Z,4.10
2019-05-26T10:15:05.787Z,2.60
2019-05-26T10:17:38.186Z,3.97
2019-05-26T10:20:11.658Z,2.47
2019-05-26T10:22:44.314Z,2.40
2019-05-26T10:25:16.797Z,2.67
2019-05-26T10:27:50.149Z,2.73
2019-05-26T10:30:22.931Z,3.03
2019-05-26T10:32:55.725Z,2.93
2019-05-26T10:35:28.696Z,2.90
2019-05-26T10:38:01.448Z,3.10
2019-05-26T10:40:34.150Z,5.47
2019-05-26T10:43:07.180Z,4.17
2019-05-26T10:45:39.712Z,4.07
2019-05-26T10:48:12.140Z,4.40
2019-05-26T10:50:45.177Z,2.43
2019-05-26T10:53:17.254Z,3.97
2019-05-26T10:55:49.340Z,3.17
2019-05-26T10:58:22.122Z,3.12
2019-05-26T11:00:54.222Z,2.98
2019-05-26T11:03:26.957Z,2.77
2019-05-26T11:06:00.055Z,3.95
2019-05-26T11:08:33.745Z,3.33
2019-05-26T11:11:05.906Z,2.50
2019-05-26T11:13:40.617Z,2.75
2019-05-26T11:16:11.929Z,2.45
2019-05-26T11:18:44.455Z,3.83
2019-05-26T11:21:16.444Z,5.97
2019-05-26T11:23:48.507Z,3.90
2019-05-26T11:26:20.709Z,2.40
2019-05-26T11:28:53.841Z,2.52
2019-05-26T11:31:26.934Z,2.55
2019-05-26T11:33:59.423Z,3.72
2019-05-26T11:36:31.206Z,2.65
2019-05-26T11:39:03.168Z,3.22
2019-05-26T11:41:35.850Z,3.27
2019-05-26T11:44:17.580Z,3.37
2019-05-26T11:46:42.339Z,2.97
2019-05-26T11:49:14.615Z,3.02
2019-05-26T11:51:47.114Z,3.62
2019-05-26T11:54:20.014Z,4.27
2019-05-26T11:56:52.387Z,2.60
2019-05-26T11:59:24.183Z,4.58
2019-05-26T12:01:56.365Z,3.33
2019-05-26T12:04:29.773Z,3.35
2019-05-26T12:07:04.478Z,2.77
2019-05-26T12:09:36.955Z,2.58
2019-05-26T12:12:09.124Z,3.37
2019-05-26T12:14:41.063Z,2.85
2019-05-26T12:17:13.434Z,3.47
2019-05-26T12:19:45.498Z,3.83
2019-05-26T12:22:17.567Z,6.60
2019-05-26T12:24:49.294Z,2.22
2019-05-26T12:27:21.438Z,2.35
2019-05-26T12:32:24.375Z,3.17
2019-05-26T12:37:27.542Z,4.30
2019-05-26T12:40:00.424Z,3.67
2019-05-26T12:42:33.402Z,2.23
2019-05-26T12:45:08.735Z,2.70
2019-05-26T12:47:40.857Z,2.52
2019-05-26T12:50:14.202Z,2.80
2019-05-26T12:52:46.721Z,2.20
2019-05-26T12:55:19.501Z,7.47
2019-05-26T12:57:51.902Z,4.28
2019-05-26T13:00:25.568Z,2.65
2019-05-26T13:02:57.797Z,2.83
2019-05-26T13:05:30.386Z,3.13
2019-05-26T13:08:02.760Z,3.57
2019-05-26T13:10:35.452Z,2.33
2019-05-26T13:13:08.147Z,2.90
2019-05-26T13:15:40.819Z,3.03
2019-05-26T13:18:13.503Z,2.30
2019-05-26T13:20:46.823Z,2.57
2019-05-26T13:23:19.777Z,2.47
2019-05-26T13:25:53.156Z,2.87
2019-05-26T13:28:26.048Z,2.83
2019-05-26T13:30:58.578Z,2.22
2019-05-26T13:33:31.009Z,1.77
2019-05-26T13:36:03.794Z,2.87
2019-05-26T13:38:36.435Z,3.27
2019-05-26T13:41:08.751Z,2.00
2019-05-26T13:43:41.414Z,1.70
2019-05-26T13:46:14.713Z,3.00
2019-05-26T13:48:47.381Z,3.80
2019-05-26T13:51:20.161Z,2.03
2019-05-26T13:53:52.638Z,3.47
2019-05-26T13:56:25.017Z,2.55
2019-05-26T13:58:57.212Z,2.45
2019-05-26T14:01:29.876Z,3.02
2019-05-26T14:04:02.124Z,3.17
2019-05-26T14:06:34.707Z,3.62
2019-05-26T14:09:10.576Z,2.15
2019-05-26T14:11:42.672Z,1.98
2019-05-26T14:14:14.947Z,2.27
2019-05-26T14:16:49.316Z,1.98
2019-05-26T14:19:23.195Z,2.87
2019-05-26T14:21:55.489Z,1.60
2019-05-26T14:24:27.661Z,1.70
2019-05-26T14:27:00.129Z,2.58
2019-05-26T14:29:32.702Z,2.12
2019-05-26T14:32:05.121Z,1.42
2019-05-26T14:34:37.502Z,1.98
2019-05-26T14:37:10.343Z,2.42
2019-05-26T14:39:42.398Z,1.57
2019-05-26T14:42:14.604Z,1.87
2019-05-26T14:44:46.969Z,2.80
2019-05-26T14:47:18.923Z,2.40
2019-05-26T14:49:51.279Z,1.65
2019-05-26T14:52:23.171Z,2.87
2019-05-26T14:57:26.495Z,3.83
2019-05-26T15:02:30.079Z,2.02
2019-05-26T15:05:02.215Z,2.25
2019-05-26T15:07:34.738Z,1.40
2019-05-26T15:10:07.234Z,3.72
2019-05-26T15:12:40.275Z,1.72
2019-05-26T15:15:12.694Z,4.17
2019-05-26T15:17:45.159Z,2.60
2019-05-26T15:20:17.373Z,2.20
2019-05-26T15:22:49.269Z,2.37
2019-05-26T15:25:21.411Z,4.40
2019-05-26T15:27:53.941Z,2.10
2019-05-26T15:30:25.759Z,1.75
2019-05-26T15:35:29.192Z,2.03
2019-05-26T15:38:02.081Z,1.70
2019-05-26T15:40:34.469Z,3.45
2019-05-26T15:43:07.011Z,3.03
2019-05-26T15:45:39.076Z,2.80
2019-05-26T15:48:12.374Z,3.83
2019-05-26T15:50:45.456Z,37.67
2019-05-26T15:53:18.201Z,5.55
2019-05-26T15:55:50.711Z,5.50
2019-05-26T15:58:23.014Z,11.12
2019-05-26T16:00:56.143Z,7.10
2019-05-26T16:03:28.589Z,3.50
2019-05-26T16:06:01.018Z,3.65
2019-05-26T16:08:33.455Z,3.08
2019-05-26T16:11:05.928Z,3.75
2019-05-26T16:13:38.981Z,1.70
2019-05-26T16:16:12.007Z,2.10
2019-05-26T16:18:45.571Z,4.35
2019-05-26T16:21:27.646Z,2.05
2019-05-26T16:23:51.458Z,1.98
2019-05-26T16:28:55.209Z,4.23
2019-05-26T16:31:29.149Z,2.07
2019-05-26T16:34:02.156Z,1.57
2019-05-26T16:36:34.935Z,1.57
2019-05-26T16:39:09.498Z,1.90
2019-05-26T16:41:41.735Z,2.25
2019-05-26T16:44:13.808Z,2.70
2019-05-26T16:46:55.946Z,3.90
2019-05-26T16:49:21.268Z,6.30
2019-05-26T16:51:54.182Z,3.05
2019-05-26T16:54:26.239Z,3.97
2019-05-26T16:56:58.640Z,2.27
2019-05-26T16:59:30.949Z,2.12
2019-05-26T17:02:03.602Z,4.85
2019-05-26T17:04:36.399Z,2.12
2019-05-26T17:07:08.188Z,1.45
2019-05-26T17:12:11.955Z,2.13
2019-05-26T17:14:44.647Z,1.87
2019-05-26T17:17:16.722Z,2.02
2019-05-26T17:19:52.593Z,2.25
2019-05-26T17:22:23.294Z,2.77
2019-05-26T17:24:59.843Z,2.10
2019-05-26T17:27:31.393Z,1.77
2019-05-26T17:30:03.670Z,1.90
2019-05-26T17:35:06.858Z,2.85
2019-05-26T17:37:39.265Z,2.53
2019-05-26T17:42:42.730Z,2.05
2019-05-26T17:47:48.058Z,1.90
2019-05-26T17:50:20.246Z,1.98
2019-05-26T17:55:24.131Z,2.52
2019-05-26T17:57:56.897Z,2.17
2019-05-26T18:00:29.347Z,3.73
2019-05-26T18:03:02.009Z,2.53
2019-05-26T18:05:34.982Z,1.92
2019-05-26T18:08:07.779Z,3.50
2019-05-26T18:10:40.194Z,2.20
2019-05-26T18:13:13.803Z,3.05
2019-05-26T18:15:47.635Z,3.25
2019-05-26T18:18:20.264Z,2.08
2019-05-26T18:20:52.669Z,3.33
2019-05-26T18:23:24.788Z,5.92
2019-05-26T18:25:57.616Z,1.95
2019-05-26T18:28:31.162Z,2.60
2019-05-26T18:31:03.822Z,1.53
2019-05-26T18:36:07.302Z,2.58
2019-05-26T18:38:40.914Z,2.70
2019-05-26T18:41:16.738Z,1.67
2019-05-26T18:43:48.815Z,2.17
2019-05-26T18:46:21.298Z,1.95
2019-05-26T18:48:53.755Z,1.60
2019-05-26T18:51:28.324Z,2.00
2019-05-26T18:54:03.827Z,2.17
2019-05-26T18:56:39.589Z,2.10
2019-05-26T18:59:12.574Z,1.70
2019-05-26T19:01:44.637Z,1.97
2019-05-26T19:04:17.031Z,2.05
2019-05-26T19:06:49.682Z,2.35
2019-05-26T19:09:21.575Z,2.15
2019-05-26T19:11:54.883Z,3.05
2019-05-26T19:14:30.873Z,2.40
2019-05-26T19:17:02.659Z,3.10
2019-05-26T19:19:36.071Z,2.45
2019-05-26T19:22:10.485Z,2.27
2019-05-26T19:24:43.204Z,2.83
2019-05-26T19:27:15.081Z,3.30
2019-05-26T19:29:47.814Z,2.55
2019-05-26T19:34:54.762Z,1.62
2019-05-26T19:37:27.868Z,2.20
2019-05-26T19:40:00.689Z,2.00
2019-05-26T19:45:04.070Z,2.35
2019-05-26T19:47:36.812Z,2.27
2019-05-26T19:50:10.227Z,2.10
2019-05-26T19:52:42.790Z,3.70
2019-05-26T19:55:15.786Z,4.08
2019-05-26T19:57:48.414Z,2.97
2019-05-26T20:00:21.884Z,2.02
2019-05-26T20:02:54.781Z,2.20
2019-05-26T20:08:19.280Z,2.20
2019-05-26T20:10:51.659Z,2.47
2019-05-26T20:13:24.276Z,3.02
2019-05-26T20:15:57.658Z,2.08
2019-05-26T20:18:30.465Z,1.90
2019-05-26T20:21:03.125Z,3.47
2019-05-26T20:26:06.404Z,2.52
2019-05-26T20:28:39.378Z,2.67
2019-05-26T20:31:12.116Z,3.07
2019-05-26T20:33:44.880Z,3.12
2019-05-26T20:36:17.533Z,2.50
2019-05-26T20:38:51.180Z,3.62
2019-05-26T20:41:23.884Z,2.53
2019-05-26T20:43:56.748Z,3.60
2019-05-26T20:46:28.934Z,3.02
2019-05-26T20:49:01.727Z,3.45
2019-05-26T20:51:34.419Z,4.30
2019-05-26T20:56:39.101Z,2.55
2019-05-26T20:59:12.248Z,2.87
2019-05-26T21:01:44.551Z,3.58
2019-05-26T21:04:17.238Z,2.72
2019-05-26T21:06:50.086Z,3.42
2019-05-26T21:09:25.363Z,4.28
2019-05-26T21:11:58.329Z,3.15
2019-05-26T21:14:30.850Z,4.60
2019-05-26T21:17:04.091Z,4.75
2019-05-26T21:19:37.069Z,3.77
2019-05-26T21:22:09.378Z,5.08
2019-05-26T21:24:42.460Z,6.25
2019-05-26T21:27:15.580Z,5.28
2019-05-26T21:29:47.670Z,3.85
2019-05-26T21:32:20.766Z,4.12
2019-05-26T21:34:54.309Z,3.98
2019-05-26T21:37:28.002Z,6.25
2019-05-26T21:40:00.355Z,4.22
2019-05-26T21:42:33.789Z,4.10
2019-05-26T21:45:07.092Z,4.78
2019-05-26T21:50:11.043Z,3.30
2019-05-26T21:52:45.797Z,3.72
2019-05-26T21:55:18.478Z,4.90
2019-05-26T21:57:50.797Z,4.50
2019-05-26T22:00:29.089Z,2.70
2019-05-26T22:03:02.032Z,2.83
2019-05-26T22:05:35.466Z,3.85
2019-05-26T22:08:08.469Z,6.78
2019-05-26T22:10:41.771Z,3.60
2019-05-26T22:13:15.521Z,3.05
2019-05-26T22:15:47.895Z,3.10
2019-05-26T22:18:20.760Z,3.62
2019-05-26T22:20:53.124Z,3.77
2019-05-26T22:23:25.825Z,5.35
2019-05-26T22:25:58.044Z,2.80
2019-05-26T22:28:29.872Z,2.63
2019-05-26T22:31:02.597Z,3.17
2019-05-26T22:33:35.391Z,3.42
2019-05-26T22:36:07.470Z,3.37
2019-05-26T22:38:40.423Z,4.08
2019-05-26T22:41:13.047Z,3.83
2019-05-26T22:43:45.880Z,4.42
2019-05-26T22:46:18.357Z,3.83
2019-05-26T22:48:50.451Z,3.58
2019-05-26T22:51:23.865Z,4.65
2019-05-26T22:56:26.564Z,4.35
2019-05-26T22:58:59.029Z,4.47
2019-05-26T23:01:31.126Z,5.15
2019-05-26T23:04:03.790Z,7.20
2019-05-26T23:06:36.231Z,4.80
2019-05-26T23:09:08.700Z,6.00
2019-05-26T23:11:41.098Z,5.70
2019-05-26T23:14:13.509Z,4.45
2019-05-26T23:16:46.563Z,4.35
2019-05-26T23:21:51.613Z,3.90
2019-05-26T23:24:24.599Z,4.65
2019-05-26T23:26:56.673Z,4.80
2019-05-26T23:29:29.547Z,5.47
2019-05-26T23:32:02.524Z,5.12
2019-05-26T23:37:06.551Z,3.70
2019-05-26T23:39:40.353Z,6.67
2019-05-26T23:42:13.237Z,4.58
2019-05-26T23:44:46.019Z,5.47
2019-05-26T23:47:18.471Z,8.40
2019-05-26T23:49:50.929Z,6.10
2019-05-26T23:52:23.409Z,5.50
2019-05-26T23:54:56.123Z,4.92
2019-05-26T23:57:28.456Z,9.83
